createdAt,value
2022-08-17T00:00:51.877Z,6.93
2022-08-17T00:03:40.432Z,6.93
2022-08-17T00:06:11.999Z,6.22
2022-08-17T00:08:54.136Z,6.97
2022-08-17T00:11:28.829Z,6.43
2022-08-17T00:13:59.671Z,6.22
2022-08-17T00:16:55.803Z,5.80
2022-08-17T00:19:24.017Z,6.00
2022-08-17T00:22:29.498Z,5.95
2022-08-17T00:24:40.509Z,6.15
2022-08-17T00:27:08.117Z,5.85
2022-08-17T00:29:34.839Z,5.60
2022-08-17T00:33:14.905Z,5.70
2022-08-17T00:34:52.660Z,5.25
2022-08-17T00:37:19.492Z,5.53
2022-08-17T00:39:46.343Z,5.20
2022-08-17T00:42:18.217Z,5.55
2022-08-17T00:44:45.712Z,5.78
2022-08-17T00:47:12.564Z,5.60
2022-08-17T00:49:39.502Z,5.03
2022-08-17T00:52:16.554Z,5.30
2022-08-17T00:54:47.001Z,4.50
2022-08-17T00:57:34.843Z,4.25
2022-08-17T01:00:08.752Z,4.28
2022-08-17T01:02:42.093Z,4.70
2022-08-17T01:05:16.184Z,4.63
2022-08-17T01:07:47.575Z,4.22
2022-08-17T01:10:59.084Z,4.32
2022-08-17T01:13:04.077Z,4.10
2022-08-17T01:15:35.066Z,4.25
2022-08-17T01:18:02.545Z,4.38
2022-08-17T01:20:29.535Z,3.85
2022-08-17T01:22:59.112Z,4.00
2022-08-17T01:25:25.879Z,4.20
2022-08-17T01:27:52.678Z,3.92
2022-08-17T01:30:56.963Z,4.22
2022-08-17T01:33:06.319Z,4.10
2022-08-17T01:35:33.115Z,4.30
2022-08-17T01:37:59.881Z,3.80
2022-08-17T01:40:39.030Z,3.97
2022-08-17T01:43:19.991Z,4.05
2022-08-17T01:46:03.464Z,4.20
2022-08-17T01:48:37.894Z,4.05
2022-08-17T01:51:07.593Z,4.00
2022-08-17T01:53:42.267Z,3.80
2022-08-17T01:56:16.777Z,3.90
2022-08-17T01:58:46.796Z,4.28
2022-08-17T02:01:22.957Z,3.75
2022-08-17T02:03:56.296Z,3.85
2022-08-17T02:06:27.503Z,4.45
2022-08-17T02:09:02.992Z,3.78
2022-08-17T02:11:33.168Z,3.80
2022-08-17T02:14:03.093Z,4.00
2022-08-17T02:16:36.868Z,4.25
2022-08-17T02:19:09.751Z,3.85
2022-08-17T02:21:38.352Z,3.80
2022-08-17T02:24:11.703Z,3.63
2022-08-17T02:26:38.495Z,4.15
2022-08-17T02:29:05.335Z,3.92
2022-08-17T02:31:32.209Z,3.80
2022-08-17T02:34:03.639Z,4.25
2022-08-17T02:36:33.162Z,3.28
2022-08-17T02:39:08.472Z,4.05
2022-08-17T02:44:05.848Z,4.00
2022-08-17T02:46:35.189Z,4.00
2022-08-17T02:49:02.022Z,4.30
2022-08-17T02:51:28.984Z,3.72
2022-08-17T02:54:39.106Z,4.15
2022-08-17T02:56:42.930Z,4.10
2022-08-17T02:59:09.719Z,3.70
2022-08-17T03:01:36.510Z,3.88
2022-08-17T03:04:03.544Z,4.00
2022-08-17T03:06:31.796Z,4.20
2022-08-17T03:08:58.722Z,4.10
2022-08-17T03:11:25.532Z,4.78
2022-08-17T03:13:52.269Z,4.32
2022-08-17T03:16:21.138Z,4.30
2022-08-17T03:18:48.569Z,4.00
2022-08-17T03:21:17.772Z,4.53
2022-08-17T03:23:44.536Z,4.10
2022-08-17T03:26:12.345Z,4.47
2022-08-17T03:28:42.466Z,4.25
2022-08-17T03:31:14.480Z,4.32
2022-08-17T03:33:43.430Z,4.30
2022-08-17T03:36:10.746Z,4.20
2022-08-17T03:38:39.071Z,4.45
2022-08-17T03:41:07.009Z,4.43
2022-08-17T03:43:34.618Z,4.80
2022-08-17T03:46:41.194Z,4.18
2022-08-17T03:49:27.319Z,4.10
2022-08-17T03:52:13.463Z,4.32
2022-08-17T03:55:00.479Z,4.53
2022-08-17T03:57:27.771Z,4.07
2022-08-17T03:59:55.357Z,4.32
2022-08-17T04:02:26.793Z,4.38
2022-08-17T04:04:55.745Z,4.50
2022-08-17T04:07:25.077Z,4.50
2022-08-17T04:09:51.984Z,4.20
2022-08-17T04:12:20.802Z,4.53
2022-08-17T04:14:52.810Z,4.55
2022-08-17T04:17:29.067Z,4.60
2022-08-17T04:19:56.943Z,3.97
2022-08-17T04:22:31.230Z,4.22
2022-08-17T04:25:09.037Z,4.03
2022-08-17T04:27:38.438Z,4.45
2022-08-17T04:30:07.319Z,4.22
2022-08-17T04:33:05.939Z,4.25
2022-08-17T04:35:43.152Z,4.10
2022-08-17T04:38:13.147Z,4.22
2022-08-17T04:40:58.727Z,4.03
2022-08-17T04:43:27.849Z,4.40
2022-08-17T04:45:57.728Z,4.35
2022-08-17T04:48:37.553Z,4.15
2022-08-17T04:51:09.732Z,4.70
2022-08-17T04:53:40.889Z,4.32
2022-08-17T04:56:11.643Z,4.30
2022-08-17T04:58:47.887Z,4.60
2022-08-17T05:01:23.229Z,3.88
2022-08-17T05:03:54.494Z,4.00
2022-08-17T05:06:22.111Z,3.97
2022-08-17T05:08:49.026Z,3.83
2022-08-17T05:11:15.920Z,3.95
2022-08-17T05:13:42.679Z,4.13
2022-08-17T05:16:09.704Z,4.05
2022-08-17T05:18:38.771Z,4.30
2022-08-17T05:21:08.414Z,3.72
2022-08-17T05:23:42.858Z,4.28
2022-08-17T05:26:26.171Z,3.90
2022-08-17T05:29:00.360Z,4.65
2022-08-17T05:31:28.758Z,4.28
2022-08-17T05:33:55.818Z,4.25
2022-08-17T05:36:41.808Z,4.20
2022-08-17T05:39:10.734Z,4.10
2022-08-17T05:41:43.596Z,4.10
2022-08-17T05:44:10.956Z,3.83
2022-08-17T05:46:41.913Z,3.80
2022-08-17T05:49:09.492Z,4.38
2022-08-17T05:52:06.393Z,4.03
2022-08-17T05:54:47.459Z,3.70
2022-08-17T05:57:53.389Z,4.10
2022-08-17T06:00:30.199Z,3.58
2022-08-17T06:03:25.030Z,4.00
2022-08-17T06:06:17.716Z,4.50
2022-08-17T06:08:51.904Z,4.20
2022-08-17T06:11:27.660Z,4.55
2022-08-17T06:14:03.937Z,4.65
2022-08-17T06:16:36.840Z,4.45
2022-08-17T06:19:14.856Z,5.25
2022-08-17T06:21:45.297Z,5.03
2022-08-17T06:24:18.317Z,4.82
2022-08-17T06:26:45.678Z,4.88
2022-08-17T06:29:30.562Z,4.65
2022-08-17T06:31:57.661Z,5.32
2022-08-17T06:34:24.587Z,6.05
2022-08-17T06:37:03.737Z,5.30
2022-08-17T06:39:41.545Z,5.53
2022-08-17T06:43:02.111Z,5.90
2022-08-17T06:45:34.637Z,5.80
2022-08-17T06:48:15.561Z,5.18
2022-08-17T06:51:08.317Z,5.90
2022-08-17T06:53:40.251Z,5.90
2022-08-17T06:56:10.978Z,5.50
2022-08-17T06:58:41.612Z,6.05
2022-08-17T07:01:25.200Z,5.55
2022-08-17T07:04:17.067Z,4.97
2022-08-17T07:06:59.348Z,5.43
2022-08-17T07:09:37.442Z,5.70
2022-08-17T07:12:16.149Z,5.00
2022-08-17T07:14:51.857Z,5.25
2022-08-17T07:17:21.354Z,6.00
2022-08-17T07:20:12.913Z,6.32
2022-08-17T07:23:11.829Z,5.70
2022-08-17T07:25:41.038Z,6.30
2022-08-17T07:28:07.989Z,5.97
2022-08-17T07:30:49.681Z,6.30
2022-08-17T07:33:21.210Z,6.35
2022-08-17T07:35:49.785Z,7.15
2022-08-17T07:38:24.820Z,6.80
2022-08-17T07:41:02.683Z,6.40
2022-08-17T07:43:42.073Z,6.95
2022-08-17T07:46:30.126Z,7.20
2022-08-17T07:49:24.834Z,7.30
2022-08-17T07:51:51.582Z,7.20
2022-08-17T07:54:32.174Z,7.60
2022-08-17T07:57:00.795Z,8.10
2022-08-17T07:59:37.353Z,7.82
2022-08-17T08:02:17.079Z,8.07
2022-08-17T08:05:00.943Z,8.60
2022-08-17T08:07:40.030Z,8.65
2022-08-17T08:10:06.955Z,8.80
2022-08-17T08:12:36.941Z,9.25
2022-08-17T08:15:10.049Z,9.00
2022-08-17T08:17:47.976Z,9.13
2022-08-17T08:20:34.886Z,9.35
2022-08-17T08:23:11.466Z,8.88
2022-08-17T08:26:01.680Z,9.13
2022-08-17T08:29:05.676Z,8.98
2022-08-17T08:32:01.682Z,9.05
2022-08-17T08:37:35.518Z,8.80
2022-08-17T08:40:11.041Z,9.05
2022-08-17T08:42:58.752Z,9.30
2022-08-17T08:45:53.360Z,9.48
2022-08-17T08:48:56.627Z,9.43
2022-08-17T08:51:55.626Z,10.00
2022-08-17T08:54:40.851Z,9.00
2022-08-17T08:57:34.022Z,11.10
2022-08-17T09:00:17.387Z,9.50
2022-08-17T09:03:20.113Z,8.48
2022-08-17T09:06:06.059Z,10.32
2022-08-17T09:08:55.853Z,9.60
2022-08-17T09:11:28.410Z,10.13
2022-08-17T09:14:05.681Z,9.50
2022-08-17T09:17:12.654Z,9.45
2022-08-17T09:19:59.546Z,8.52
2022-08-17T09:25:14.403Z,10.73
2022-08-17T09:28:01.005Z,10.02
2022-08-17T09:30:36.379Z,10.40
2022-08-17T09:33:07.956Z,9.27
2022-08-17T09:35:53.341Z,11.00
2022-08-17T09:38:41.752Z,11.15
2022-08-17T09:41:49.155Z,11.05
2022-08-17T09:44:28.292Z,10.23
2022-08-17T09:47:14.056Z,10.27
2022-08-17T09:49:53.901Z,10.30
2022-08-17T09:52:25.612Z,9.70
2022-08-17T09:54:57.737Z,10.98
2022-08-17T09:57:41.814Z,10.75
2022-08-17T10:00:27.783Z,10.23
2022-08-17T10:03:34.277Z,10.75
2022-08-17T10:08:44.054Z,9.95
2022-08-17T10:11:50.280Z,10.18
2022-08-17T10:17:33.071Z,16.33
2022-08-17T10:20:30.143Z,10.43
2022-08-17T10:23:19.122Z,11.23
2022-08-17T10:26:15.576Z,10.60
2022-08-17T10:28:55.216Z,10.10
2022-08-17T10:31:34.761Z,10.52
2022-08-17T10:34:41.829Z,10.82
2022-08-17T10:37:32.926Z,10.65
2022-08-17T10:40:27.938Z,11.07
2022-08-17T10:43:32.889Z,11.25
2022-08-17T10:46:31.047Z,11.13
2022-08-17T10:49:26.966Z,11.88
2022-08-17T10:51:56.976Z,11.20
2022-08-17T10:55:08.980Z,10.82
2022-08-17T10:57:36.142Z,11.02
2022-08-17T11:00:08.349Z,10.88
2022-08-17T11:02:49.627Z,11.52
2022-08-17T11:05:43.679Z,10.95
2022-08-17T11:08:23.005Z,10.43
2022-08-17T11:11:25.661Z,10.50
2022-08-17T11:14:11.259Z,11.48
2022-08-17T11:19:33.404Z,11.50
2022-08-17T11:22:12.283Z,12.98
2022-08-17T11:24:43.386Z,12.43
2022-08-17T11:27:28.459Z,14.57
2022-08-17T11:30:07.371Z,13.75
2022-08-17T11:32:47.142Z,13.07
2022-08-17T11:35:20.781Z,12.40
2022-08-17T11:37:55.614Z,12.13
2022-08-17T11:40:25.536Z,13.75
2022-08-17T11:43:42.980Z,12.73
2022-08-17T11:46:17.303Z,15.43
2022-08-17T11:49:11.536Z,14.33
2022-08-17T11:52:32.454Z,13.30
2022-08-17T11:55:12.405Z,13.32
2022-08-17T11:58:05.527Z,15.15
2022-08-17T12:00:49.792Z,15.85
2022-08-17T12:03:53.817Z,15.95
2022-08-17T12:06:30.211Z,14.15
2022-08-17T12:09:07.534Z,14.02
2022-08-17T12:11:58.731Z,14.63
2022-08-17T12:15:08.147Z,14.15
2022-08-17T12:17:41.499Z,16.52
2022-08-17T12:20:15.145Z,14.05
2022-08-17T12:32:54.569Z,14.38
2022-08-17T12:35:36.687Z,13.85
2022-08-17T12:38:32.069Z,14.20
2022-08-17T12:40:58.351Z,14.70
2022-08-17T12:43:31.173Z,14.45
2022-08-17T12:46:14.794Z,12.63
2022-08-17T12:48:58.915Z,14.68
2022-08-17T12:51:29.113Z,12.20
2022-08-17T12:53:56.288Z,11.85
2022-08-17T12:56:23.180Z,13.30
2022-08-17T12:58:54.366Z,13.38
2022-08-17T13:01:23.419Z,12.30
2022-08-17T13:03:53.438Z,11.82
2022-08-17T13:06:51.789Z,12.85
2022-08-17T13:09:35.664Z,13.95
2022-08-17T13:12:08.106Z,12.27
2022-08-17T13:14:35.334Z,13.38
2022-08-17T13:17:09.654Z,12.77
2022-08-17T13:19:49.334Z,13.98
2022-08-17T13:22:18.306Z,12.23
2022-08-17T13:25:16.036Z,13.80
2022-08-17T13:27:44.105Z,13.30
2022-08-17T13:30:14.168Z,12.75
2022-08-17T13:32:47.329Z,12.50
2022-08-17T13:35:40.016Z,14.23
2022-08-17T13:38:09.323Z,12.20
2022-08-17T13:40:41.686Z,12.27
2022-08-17T13:43:10.013Z,11.90
2022-08-17T13:45:50.609Z,10.70
2022-08-17T13:48:28.353Z,9.73
2022-08-17T13:50:56.441Z,12.15
2022-08-17T13:53:47.739Z,12.95
2022-08-17T13:56:38.825Z,13.57
2022-08-17T13:59:53.443Z,13.20
2022-08-17T14:02:20.360Z,14.05
2022-08-17T14:04:47.974Z,14.75
2022-08-17T14:07:16.038Z,15.30
2022-08-17T14:09:55.878Z,16.55
2022-08-17T14:12:25.970Z,16.63
2022-08-17T14:14:55.028Z,15.13
2022-08-17T14:17:23.067Z,16.92
2022-08-17T14:19:51.009Z,18.55
2022-08-17T14:22:34.868Z,19.10
2022-08-17T14:25:02.455Z,18.30
2022-08-17T14:27:33.364Z,21.75
2022-08-17T14:30:09.197Z,18.27
2022-08-17T14:32:41.332Z,17.77
2022-08-17T14:35:10.100Z,18.38
2022-08-17T14:37:36.999Z,18.52
2022-08-17T14:40:10.815Z,18.90
2022-08-17T14:42:40.287Z,17.83
2022-08-17T14:45:32.892Z,17.15
2022-08-17T14:47:59.598Z,16.60
2022-08-17T14:50:27.202Z,15.45
2022-08-17T14:52:58.194Z,15.85
2022-08-17T14:55:26.527Z,16.83
2022-08-17T14:57:55.616Z,16.67
2022-08-17T15:00:26.045Z,17.48
2022-08-17T15:03:00.339Z,18.23
2022-08-17T15:05:39.509Z,18.38
2022-08-17T15:08:07.073Z,21.55
2022-08-17T15:10:36.518Z,19.80
2022-08-17T15:13:03.987Z,20.17
2022-08-17T15:15:30.853Z,18.40
2022-08-17T15:18:00.032Z,16.40
2022-08-17T15:20:29.779Z,15.05
2022-08-17T15:22:58.984Z,16.48
2022-08-17T15:25:29.587Z,14.30
2022-08-17T15:27:56.788Z,17.05
2022-08-17T15:30:24.284Z,16.52
2022-08-17T15:32:55.207Z,16.45
2022-08-17T15:35:27.920Z,13.95
2022-08-17T15:38:11.050Z,16.13
2022-08-17T15:40:43.835Z,15.30
2022-08-17T15:43:35.121Z,13.85
2022-08-17T15:46:07.811Z,14.25
2022-08-17T15:48:41.822Z,11.27
2022-08-17T15:51:08.952Z,11.85
2022-08-17T15:53:36.587Z,11.20
2022-08-17T15:56:06.288Z,11.70
2022-08-17T15:58:36.763Z,11.82
2022-08-17T16:01:14.756Z,11.60
2022-08-17T16:04:04.821Z,12.52
2022-08-17T16:06:34.603Z,13.63
2022-08-17T16:09:01.411Z,13.15
2022-08-17T16:11:28.236Z,13.85
2022-08-17T16:13:56.057Z,11.27
2022-08-17T16:16:23.765Z,12.77
2022-08-17T16:18:54.496Z,14.13
2022-08-17T16:21:27.103Z,13.00
2022-08-17T16:24:03.490Z,13.20
2022-08-17T16:26:31.962Z,12.07
2022-08-17T16:29:01.076Z,13.13
2022-08-17T16:31:28.972Z,13.00
2022-08-17T16:34:16.085Z,12.73
2022-08-17T16:36:54.639Z,11.65
2022-08-17T16:39:28.950Z,11.32
2022-08-17T16:41:56.964Z,12.63
2022-08-17T16:44:26.112Z,11.75
2022-08-17T16:46:53.590Z,11.88
2022-08-17T16:49:35.101Z,12.13
2022-08-17T16:52:07.488Z,11.75
2022-08-17T16:54:35.663Z,11.90
2022-08-17T16:57:05.132Z,11.82
2022-08-17T16:59:40.811Z,11.20
2022-08-17T17:02:13.456Z,11.40
2022-08-17T17:04:49.517Z,12.23
2022-08-17T17:07:36.533Z,12.45
2022-08-17T17:10:17.145Z,10.90
2022-08-17T17:13:03.165Z,11.77
2022-08-17T17:15:47.273Z,11.63
2022-08-17T17:18:15.722Z,12.35
2022-08-17T17:20:55.259Z,12.75
2022-08-17T17:23:43.462Z,11.07
2022-08-17T17:26:40.794Z,11.65
2022-08-17T17:29:10.715Z,11.38
2022-08-17T17:31:47.283Z,10.32
2022-08-17T17:34:16.577Z,9.77
2022-08-17T17:36:52.045Z,9.50
2022-08-17T17:40:00.053Z,9.75
2022-08-17T17:42:31.525Z,9.02
2022-08-17T17:45:13.492Z,8.77
2022-08-17T17:47:40.602Z,8.98
2022-08-17T17:50:08.461Z,9.30
2022-08-17T17:53:04.373Z,8.02
2022-08-17T17:55:54.834Z,8.63
2022-08-17T17:59:06.508Z,8.85
2022-08-17T18:01:59.278Z,8.90
2022-08-17T18:04:41.373Z,8.80
2022-08-17T18:07:19.395Z,8.40
2022-08-17T18:10:29.907Z,8.80
2022-08-17T18:13:39.225Z,9.88
2022-08-17T18:16:10.128Z,9.02
2022-08-17T18:18:39.090Z,9.73
2022-08-17T18:21:16.749Z,10.43
2022-08-17T18:24:00.617Z,10.10
2022-08-17T18:26:33.512Z,10.30
2022-08-17T18:29:02.415Z,10.68
2022-08-17T18:31:29.442Z,10.45
2022-08-17T18:34:45.910Z,10.30
2022-08-17T18:37:10.737Z,9.95
2022-08-17T18:39:38.336Z,10.25
2022-08-17T18:42:23.567Z,10.98
2022-08-17T18:44:54.788Z,10.48
2022-08-17T18:47:25.393Z,10.02
2022-08-17T18:50:19.370Z,9.52
2022-08-17T18:52:48.552Z,10.45
2022-08-17T18:55:22.235Z,9.45
2022-08-17T18:58:18.126Z,10.10
2022-08-17T19:03:15.690Z,9.10
2022-08-17T19:05:49.769Z,9.15
2022-08-17T19:08:19.281Z,8.32
2022-08-17T19:10:49.303Z,8.93
2022-08-17T19:13:23.268Z,10.05
2022-08-17T19:16:11.454Z,9.45
2022-08-17T19:19:04.893Z,9.38
2022-08-17T19:21:45.830Z,9.85
2022-08-17T19:24:29.955Z,9.07
2022-08-17T19:27:43.670Z,8.73
2022-08-17T19:30:14.798Z,9.55
2022-08-17T19:32:44.539Z,8.75
2022-08-17T19:35:17.383Z,8.98
2022-08-17T19:38:03.802Z,8.82
2022-08-17T19:40:56.069Z,8.50
2022-08-17T19:43:28.592Z,8.48
2022-08-17T19:46:27.367Z,8.60
2022-08-17T19:49:33.169Z,8.35
2022-08-17T19:52:43.184Z,8.65
2022-08-17T19:55:47.460Z,8.63
2022-08-17T19:58:42.830Z,8.70
2022-08-17T20:01:19.472Z,8.60
2022-08-17T20:04:03.388Z,8.50
2022-08-17T20:06:34.402Z,8.48
2022-08-17T20:09:20.029Z,7.88
2022-08-17T20:14:19.635Z,9.13
2022-08-17T20:16:46.412Z,9.07
2022-08-17T20:19:24.279Z,8.20
2022-08-17T20:21:58.306Z,8.80
2022-08-17T20:24:39.938Z,9.05
2022-08-17T20:27:10.064Z,16.92
2022-08-17T20:29:55.258Z,9.25
2022-08-17T20:32:26.857Z,9.63
2022-08-17T20:35:21.026Z,8.68
2022-08-17T20:37:58.003Z,8.82
2022-08-17T20:40:38.497Z,9.13
2022-08-17T20:43:43.246Z,8.48
2022-08-17T20:46:28.150Z,8.60
2022-08-17T20:48:59.824Z,9.20
2022-08-17T20:51:32.488Z,9.65
2022-08-17T20:54:07.087Z,9.52
2022-08-17T20:56:46.531Z,9.43
2022-08-17T20:59:30.353Z,9.30
2022-08-17T21:02:12.377Z,9.77
2022-08-17T21:04:54.462Z,10.00
2022-08-17T21:07:41.055Z,10.65
2022-08-17T21:10:16.796Z,10.63
2022-08-17T21:12:48.524Z,10.65
2022-08-17T21:15:39.320Z,10.35
2022-08-17T21:18:16.461Z,11.00
2022-08-17T21:21:15.349Z,10.60
2022-08-17T21:23:57.078Z,10.40
2022-08-17T21:26:50.500Z,10.45
2022-08-17T21:29:31.753Z,11.20
2022-08-17T21:32:00.530Z,10.40
2022-08-17T21:34:43.278Z,11.85
2022-08-17T21:37:18.942Z,11.55
2022-08-17T21:40:08.711Z,10.82
2022-08-17T21:42:38.315Z,11.20
2022-08-17T21:45:24.339Z,11.57
2022-08-17T21:48:17.716Z,11.63
2022-08-17T21:50:55.731Z,11.05
2022-08-17T21:53:38.021Z,11.18
2022-08-17T21:56:06.114Z,11.70
2022-08-17T21:58:39.092Z,11.88
2022-08-17T22:01:20.017Z,11.60
2022-08-17T22:04:14.165Z,12.32
2022-08-17T22:06:57.308Z,12.35
2022-08-17T22:09:25.697Z,11.20
2022-08-17T22:11:58.341Z,11.70
2022-08-17T22:14:53.296Z,11.82
2022-08-17T22:17:25.106Z,12.32
2022-08-17T22:20:01.451Z,11.80
2022-08-17T22:22:33.976Z,12.05
2022-08-17T22:25:05.227Z,12.30
2022-08-17T22:27:57.847Z,12.50
2022-08-17T22:30:27.541Z,14.77
2022-08-17T22:32:59.724Z,13.35
2022-08-17T22:35:34.807Z,14.13
2022-08-17T22:38:19.834Z,12.77
2022-08-17T22:40:56.090Z,14.25
2022-08-17T22:43:28.605Z,14.93
2022-08-17T22:45:58.950Z,15.60
2022-08-17T22:48:28.766Z,14.45
2022-08-17T22:51:14.146Z,15.60
2022-08-17T22:54:12.236Z,15.77
2022-08-17T22:57:32.066Z,16.45
2022-08-17T23:00:00.806Z,16.48
2022-08-17T23:02:34.362Z,16.23
2022-08-17T23:05:10.768Z,17.85
2022-08-17T23:07:37.857Z,16.92
2022-08-17T23:10:07.534Z,17.00
2022-08-17T23:12:39.660Z,16.50
2022-08-17T23:15:14.564Z,16.63
2022-08-17T23:17:42.159Z,17.13
2022-08-17T23:20:12.551Z,16.88
2022-08-17T23:22:51.255Z,16.38
2022-08-17T23:25:28.269Z,16.45
2022-08-17T23:28:01.883Z,16.67
2022-08-17T23:30:30.537Z,17.80
2022-08-17T23:33:04.697Z,17.65
2022-08-17T23:35:40.097Z,18.02
2022-08-17T23:38:12.954Z,17.38
2022-08-17T23:40:43.093Z,17.92
2022-08-17T23:43:24.322Z,17.35
2022-08-17T23:45:57.954Z,17.45
2022-08-17T23:48:34.973Z,16.92
2022-08-17T23:51:10.829Z,18.58
2022-08-17T23:53:41.916Z,16.85
2022-08-17T23:56:11.820Z,16.13
2022-08-17T23:58:41.930Z,17.42
